sensor_id;sensor_type;location;lat;lon;timestamp;P1;durP1;ratioP1;P2;durP2;ratioP2
27746;SDS011;15138;51.012;4.692;2024-01-27T00:02:04;11.55;;;4.38;;
27746;SDS011;15138;51.012;4.692;2024-01-27T00:04:32;11.15;;;3.95;;
27746;SDS011;15138;51.012;4.692;2024-01-27T00:07:02;8.30;;;3.70;;
27746;SDS011;15138;51.012;4.692;2024-01-27T00:09:31;11.55;;;4.10;;
27746;SDS011;15138;51.012;4.692;2024-01-27T00:11:59;12.57;;;4.05;;
27746;SDS011;15138;51.012;4.692;2024-01-27T00:14:27;11.13;;;4.63;;
27746;SDS011;15138;51.012;4.692;2024-01-27T00:16:55;14.55;;;4.78;;
27746;SDS011;15138;51.012;4.692;2024-01-27T00:19:25;15.02;;;4.03;;
27746;SDS011;15138;51.012;4.692;2024-01-27T00:21:53;7.93;;;3.63;;
27746;SDS011;15138;51.012;4.692;2024-01-27T00:24:21;12.45;;;3.47;;
27746;SDS011;15138;51.012;4.692;2024-01-27T00:26:49;15.35;;;4.40;;
27746;SDS011;15138;51.012;4.692;2024-01-27T00:29:18;10.82;;;3.97;;
27746;SDS011;15138;51.012;4.692;2024-01-27T00:31:46;10.05;;;3.63;;
27746;SDS011;15138;51.012;4.692;2024-01-27T00:34:15;12.88;;;4.13;;
27746;SDS011;15138;51.012;4.692;2024-01-27T00:36:45;9.68;;;4.00;;
27746;SDS011;15138;51.012;4.692;2024-01-27T00:39:15;11.00;;;4.00;;
27746;SDS011;15138;51.012;4.692;2024-01-27T00:41:44;11.48;;;3.60;;
27746;SDS011;15138;51.012;4.692;2024-01-27T00:44:12;14.38;;;4.40;;
27746;SDS011;15138;51.012;4.692;2024-01-27T00:46:40;9.40;;;4.03;;
27746;SDS011;15138;51.012;4.692;2024-01-27T00:49:08;11.82;;;4.10;;
27746;SDS011;15138;51.012;4.692;2024-01-27T00:51:36;8.18;;;3.60;;
27746;SDS011;15138;51.012;4.692;2024-01-27T00:54:07;16.25;;;4.65;;
27746;SDS011;15138;51.012;4.692;2024-01-27T00:56:35;13.80;;;4.38;;
27746;SDS011;15138;51.012;4.692;2024-01-27T00:59:03;12.48;;;4.00;;
27746;SDS011;15138;51.012;4.692;2024-01-27T01:01:32;16.63;;;4.63;;
27746;SDS011;15138;51.012;4.692;2024-01-27T01:04:00;9.98;;;3.85;;
27746;SDS011;15138;51.012;4.692;2024-01-27T01:06:28;9.07;;;3.90;;
27746;SDS011;15138;51.012;4.692;2024-01-27T01:08:57;10.73;;;3.88;;
27746;SDS011;15138;51.012;4.692;2024-01-27T01:11:26;14.35;;;4.90;;
27746;SDS011;15138;51.012;4.692;2024-01-27T01:13:54;11.75;;;4.50;;
27746;SDS011;15138;51.012;4.692;2024-01-27T01:16:23;12.48;;;4.55;;
27746;SDS011;15138;51.012;4.692;2024-01-27T01:18:51;12.25;;;3.70;;
27746;SDS011;15138;51.012;4.692;2024-01-27T01:21:19;11.10;;;3.67;;
27746;SDS011;15138;51.012;4.692;2024-01-27T01:23:48;9.07;;;3.40;;
27746;SDS011;15138;51.012;4.692;2024-01-27T01:26:16;9.77;;;4.32;;
27746;SDS011;15138;51.012;4.692;2024-01-27T01:28:45;9.00;;;3.88;;
27746;SDS011;15138;51.012;4.692;2024-01-27T01:31:14;10.25;;;3.80;;
27746;SDS011;15138;51.012;4.692;2024-01-27T01:33:42;7.63;;;3.38;;
27746;SDS011;15138;51.012;4.692;2024-01-27T01:36:10;13.32;;;4.15;;
27746;SDS011;15138;51.012;4.692;2024-01-27T01:38:39;8.90;;;3.75;;
27746;SDS011;15138;51.012;4.692;2024-01-27T01:41:07;8.95;;;3.63;;
27746;SDS011;15138;51.012;4.692;2024-01-27T01:43:35;10.82;;;4.13;;
27746;SDS011;15138;51.012;4.692;2024-01-27T01:46:04;10.63;;;3.35;;
27746;SDS011;15138;51.012;4.692;2024-01-27T01:48:33;11.48;;;4.30;;
27746;SDS011;15138;51.012;4.692;2024-01-27T01:51:01;14.05;;;3.88;;
27746;SDS011;15138;51.012;4.692;2024-01-27T01:53:29;7.75;;;4.00;;
27746;SDS011;15138;51.012;4.692;2024-01-27T01:55:58;10.10;;;3.95;;
27746;SDS011;15138;51.012;4.692;2024-01-27T01:58:26;10.93;;;3.35;;
27746;SDS011;15138;51.012;4.692;2024-01-27T02:01:00;9.50;;;3.38;;
27746;SDS011;15138;51.012;4.692;2024-01-27T02:03:30;7.35;;;3.35;;
27746;SDS011;15138;51.012;4.692;2024-01-27T02:05:58;11.80;;;4.32;;
27746;SDS011;15138;51.012;4.692;2024-01-27T02:08:26;11.02;;;4.10;;
27746;SDS011;15138;51.012;4.692;2024-01-27T02:10:55;12.95;;;4.30;;
27746;SDS011;15138;51.012;4.692;2024-01-27T02:13:24;7.97;;;3.55;;
27746;SDS011;15138;51.012;4.692;2024-01-27T02:15:53;11.35;;;3.95;;
27746;SDS011;15138;51.012;4.692;2024-01-27T02:18:22;10.32;;;4.18;;
27746;SDS011;15138;51.012;4.692;2024-01-27T02:20:51;9.07;;;3.72;;
27746;SDS011;15138;51.012;4.692;2024-01-27T02:23:20;9.85;;;3.35;;
27746;SDS011;15138;51.012;4.692;2024-01-27T02:25:49;10.10;;;4.13;;
27746;SDS011;15138;51.012;4.692;2024-01-27T02:28:17;7.07;;;3.70;;
27746;SDS011;15138;51.012;4.692;2024-01-27T02:30:45;11.02;;;3.53;;
27746;SDS011;15138;51.012;4.692;2024-01-27T02:33:13;9.32;;;3.70;;
27746;SDS011;15138;51.012;4.692;2024-01-27T02:35:42;10.05;;;3.80;;
27746;SDS011;15138;51.012;4.692;2024-01-27T02:38:10;9.93;;;3.83;;
27746;SDS011;15138;51.012;4.692;2024-01-27T02:40:38;10.95;;;3.67;;
27746;SDS011;15138;51.012;4.692;2024-01-27T02:43:08;8.13;;;3.42;;
27746;SDS011;15138;51.012;4.692;2024-01-27T02:45:36;8.10;;;3.47;;
27746;SDS011;15138;51.012;4.692;2024-01-27T02:48:04;12.48;;;4.45;;
27746;SDS011;15138;51.012;4.692;2024-01-27T02:50:33;12.43;;;3.47;;
27746;SDS011;15138;51.012;4.692;2024-01-27T02:53:01;6.80;;;2.83;;
27746;SDS011;15138;51.012;4.692;2024-01-27T02:55:30;9.18;;;3.30;;
27746;SDS011;15138;51.012;4.692;2024-01-27T02:57:58;9.52;;;3.42;;
27746;SDS011;15138;51.012;4.692;2024-01-27T03:00:27;9.95;;;4.22;;
27746;SDS011;15138;51.012;4.692;2024-01-27T03:02:56;9.50;;;4.18;;
27746;SDS011;15138;51.012;4.692;2024-01-27T03:05:25;11.18;;;4.45;;
27746;SDS011;15138;51.012;4.692;2024-01-27T03:07:53;7.50;;;3.22;;
27746;SDS011;15138;51.012;4.692;2024-01-27T03:10:21;8.50;;;3.75;;
27746;SDS011;15138;51.012;4.692;2024-01-27T03:12:49;10.07;;;2.83;;
27746;SDS011;15138;51.012;4.692;2024-01-27T03:15:18;11.02;;;3.60;;
27746;SDS011;15138;51.012;4.692;2024-01-27T03:17:48;7.88;;;3.60;;
27746;SDS011;15138;51.012;4.692;2024-01-27T03:20:16;12.07;;;3.90;;
27746;SDS011;15138;51.012;4.692;2024-01-27T03:22:44;7.38;;;3.17;;
27746;SDS011;15138;51.012;4.692;2024-01-27T03:25:12;6.93;;;3.38;;
27746;SDS011;15138;51.012;4.692;2024-01-27T03:27:41;8.95;;;2.67;;
27746;SDS011;15138;51.012;4.692;2024-01-27T03:30:09;8.98;;;3.72;;
27746;SDS011;15138;51.012;4.692;2024-01-27T03:32:37;10.63;;;3.03;;
27746;SDS011;15138;51.012;4.692;2024-01-27T03:35:07;9.82;;;3.25;;
27746;SDS011;15138;51.012;4.692;2024-01-27T03:37:36;9.60;;;4.32;;
27746;SDS011;15138;51.012;4.692;2024-01-27T03:40:04;8.10;;;2.92;;
27746;SDS011;15138;51.012;4.692;2024-01-27T03:42:33;10.13;;;3.47;;
27746;SDS011;15138;51.012;4.692;2024-01-27T03:45:02;13.32;;;3.67;;
27746;SDS011;15138;51.012;4.692;2024-01-27T03:47:30;8.38;;;3.28;;
27746;SDS011;15138;51.012;4.692;2024-01-27T03:49:59;9.98;;;3.42;;
27746;SDS011;15138;51.012;4.692;2024-01-27T03:52:28;6.93;;;3.10;;
27746;SDS011;15138;51.012;4.692;2024-01-27T03:54:56;7.35;;;2.88;;
27746;SDS011;15138;51.012;4.692;2024-01-27T03:57:25;12.27;;;3.55;;
27746;SDS011;15138;51.012;4.692;2024-01-27T03:59:53;8.70;;;3.25;;
27746;SDS011;15138;51.012;4.692;2024-01-27T04:02:21;12.60;;;4.32;;
27746;SDS011;15138;51.012;4.692;2024-01-27T04:04:49;10.48;;;3.40;;
27746;SDS011;15138;51.012;4.692;2024-01-27T04:07:18;8.85;;;3.80;;
27746;SDS011;15138;51.012;4.692;2024-01-27T04:09:47;13.45;;;4.45;;
27746;SDS011;15138;51.012;4.692;2024-01-27T04:12:16;5.75;;;2.55;;
27746;SDS011;15138;51.012;4.692;2024-01-27T04:14:44;8.88;;;3.53;;
27746;SDS011;15138;51.012;4.692;2024-01-27T04:17:12;11.20;;;4.15;;
27746;SDS011;15138;51.012;4.692;2024-01-27T04:19:40;12.23;;;3.78;;
27746;SDS011;15138;51.012;4.692;2024-01-27T04:22:09;11.30;;;3.80;;
27746;SDS011;15138;51.012;4.692;2024-01-27T04:24:37;8.57;;;3.08;;
27746;SDS011;15138;51.012;4.692;2024-01-27T04:27:06;12.15;;;3.75;;
27746;SDS011;15138;51.012;4.692;2024-01-27T04:29:36;13.00;;;3.50;;
27746;SDS011;15138;51.012;4.692;2024-01-27T04:32:04;9.13;;;3.85;;
27746;SDS011;15138;51.012;4.692;2024-01-27T04:34:33;18.65;;;3.75;;
27746;SDS011;15138;51.012;4.692;2024-01-27T04:37:01;14.27;;;4.20;;
27746;SDS011;15138;51.012;4.692;2024-01-27T04:39:29;8.13;;;3.40;;
27746;SDS011;15138;51.012;4.692;2024-01-27T04:41:57;9.45;;;3.67;;
27746;SDS011;15138;51.012;4.692;2024-01-27T04:44:27;11.38;;;3.88;;
27746;SDS011;15138;51.012;4.692;2024-01-27T04:46:55;13.35;;;4.60;;
27746;SDS011;15138;51.012;4.692;2024-01-27T04:49:23;11.15;;;4.47;;
27746;SDS011;15138;51.012;4.692;2024-01-27T04:51:51;13.93;;;4.93;;
27746;SDS011;15138;51.012;4.692;2024-01-27T04:54:20;11.13;;;3.85;;
27746;SDS011;15138;51.012;4.692;2024-01-27T04:56:48;9.55;;;3.35;;
27746;SDS011;15138;51.012;4.692;2024-01-27T04:59:16;11.45;;;3.90;;
27746;SDS011;15138;51.012;4.692;2024-01-27T05:01:46;7.63;;;3.25;;
27746;SDS011;15138;51.012;4.692;2024-01-27T05:04:14;6.55;;;3.05;;
27746;SDS011;15138;51.012;4.692;2024-01-27T05:06:43;11.10;;;4.15;;
27746;SDS011;15138;51.012;4.692;2024-01-27T05:09:12;11.65;;;4.30;;
27746;SDS011;15138;51.012;4.692;2024-01-27T05:11:41;10.82;;;3.70;;
27746;SDS011;15138;51.012;4.692;2024-01-27T05:14:11;16.48;;;4.82;;
27746;SDS011;15138;51.012;4.692;2024-01-27T05:16:39;11.60;;;4.07;;
27746;SDS011;15138;51.012;4.692;2024-01-27T05:19:09;10.18;;;3.70;;
27746;SDS011;15138;51.012;4.692;2024-01-27T05:21:38;7.80;;;3.42;;
27746;SDS011;15138;51.012;4.692;2024-01-27T05:24:06;9.38;;;3.35;;
27746;SDS011;15138;51.012;4.692;2024-01-27T05:26:34;13.55;;;3.65;;
27746;SDS011;15138;51.012;4.692;2024-01-27T05:29:02;12.45;;;3.97;;
27746;SDS011;15138;51.012;4.692;2024-01-27T05:31:30;12.15;;;4.40;;
27746;SDS011;15138;51.012;4.692;2024-01-27T05:33:59;14.25;;;4.40;;
27746;SDS011;15138;51.012;4.692;2024-01-27T05:36:28;10.73;;;3.35;;
27746;SDS011;15138;51.012;4.692;2024-01-27T05:38:57;11.50;;;4.30;;
27746;SDS011;15138;51.012;4.692;2024-01-27T05:41:25;8.23;;;3.83;;
27746;SDS011;15138;51.012;4.692;2024-01-27T05:43:55;18.10;;;4.45;;
27746;SDS011;15138;51.012;4.692;2024-01-27T05:46:24;9.75;;;3.50;;
27746;SDS011;15138;51.012;4.692;2024-01-27T05:48:53;9.48;;;3.60;;
27746;SDS011;15138;51.012;4.692;2024-01-27T05:51:24;9.43;;;3.40;;
27746;SDS011;15138;51.012;4.692;2024-01-27T05:53:54;9.95;;;4.50;;
27746;SDS011;15138;51.012;4.692;2024-01-27T05:56:22;9.23;;;4.15;;
27746;SDS011;15138;51.012;4.692;2024-01-27T05:58:50;10.23;;;4.13;;
27746;SDS011;15138;51.012;4.692;2024-01-27T06:01:18;15.50;;;4.45;;
27746;SDS011;15138;51.012;4.692;2024-01-27T06:03:47;19.30;;;5.60;;
27746;SDS011;15138;51.012;4.692;2024-01-27T06:06:15;16.10;;;5.40;;
27746;SDS011;15138;51.012;4.692;2024-01-27T06:08:43;13.15;;;5.45;;
27746;SDS011;15138;51.012;4.692;2024-01-27T06:11:13;12.63;;;4.47;;
27746;SDS011;15138;51.012;4.692;2024-01-27T06:13:41;11.00;;;4.05;;
27746;SDS011;15138;51.012;4.692;2024-01-27T06:16:10;13.35;;;4.57;;
27746;SDS011;15138;51.012;4.692;2024-01-27T06:18:38;11.77;;;4.13;;
27746;SDS011;15138;51.012;4.692;2024-01-27T06:21:06;14.32;;;5.43;;
27746;SDS011;15138;51.012;4.692;2024-01-27T06:23:35;15.35;;;5.05;;
27746;SDS011;15138;51.012;4.692;2024-01-27T06:26:04;13.38;;;4.13;;
27746;SDS011;15138;51.012;4.692;2024-01-27T06:28:34;10.70;;;4.00;;
27746;SDS011;15138;51.012;4.692;2024-01-27T06:31:02;17.67;;;5.43;;
27746;SDS011;15138;51.012;4.692;2024-01-27T06:33:31;15.15;;;5.22;;
27746;SDS011;15138;51.012;4.692;2024-01-27T06:36:00;18.17;;;5.82;;
27746;SDS011;15138;51.012;4.692;2024-01-27T06:38:28;15.18;;;4.80;;
27746;SDS011;15138;51.012;4.692;2024-01-27T06:40:58;14.05;;;4.45;;
27746;SDS011;15138;51.012;4.692;2024-01-27T06:43:26;10.65;;;4.65;;
27746;SDS011;15138;51.012;4.692;2024-01-27T06:45:55;17.75;;;4.82;;
27746;SDS011;15138;51.012;4.692;2024-01-27T06:48:24;17.80;;;5.10;;
27746;SDS011;15138;51.012;4.692;2024-01-27T06:50:53;11.63;;;3.95;;
27746;SDS011;15138;51.012;4.692;2024-01-27T06:53:21;17.50;;;5.80;;
27746;SDS011;15138;51.012;4.692;2024-01-27T06:55:50;12.50;;;4.70;;
27746;SDS011;15138;51.012;4.692;2024-01-27T06:58:18;14.75;;;5.47;;
27746;SDS011;15138;51.012;4.692;2024-01-27T07:00:46;15.82;;;5.65;;
27746;SDS011;15138;51.012;4.692;2024-01-27T07:03:16;17.48;;;5.57;;
27746;SDS011;15138;51.012;4.692;2024-01-27T07:05:45;19.77;;;6.05;;
27746;SDS011;15138;51.012;4.692;2024-01-27T07:08:13;18.88;;;5.95;;
27746;SDS011;15138;51.012;4.692;2024-01-27T07:10:42;15.73;;;5.57;;
27746;SDS011;15138;51.012;4.692;2024-01-27T07:13:11;11.68;;;4.32;;
27746;SDS011;15138;51.012;4.692;2024-01-27T07:15:40;16.50;;;5.38;;
27746;SDS011;15138;51.012;4.692;2024-01-27T07:18:08;17.20;;;5.75;;
27746;SDS011;15138;51.012;4.692;2024-01-27T07:20:38;16.73;;;5.72;;
27746;SDS011;15138;51.012;4.692;2024-01-27T07:23:07;19.77;;;6.88;;
27746;SDS011;15138;51.012;4.692;2024-01-27T07:25:35;18.00;;;6.03;;
27746;SDS011;15138;51.012;4.692;2024-01-27T07:28:03;16.55;;;5.55;;
27746;SDS011;15138;51.012;4.692;2024-01-27T07:30:32;16.35;;;6.35;;
27746;SDS011;15138;51.012;4.692;2024-01-27T07:33:00;12.40;;;5.03;;
27746;SDS011;15138;51.012;4.692;2024-01-27T07:35:29;16.55;;;6.45;;
27746;SDS011;15138;51.012;4.692;2024-01-27T07:37:59;20.50;;;6.15;;
27746;SDS011;15138;51.012;4.692;2024-01-27T07:40:27;23.70;;;6.57;;
27746;SDS011;15138;51.012;4.692;2024-01-27T07:42:55;17.90;;;6.03;;
27746;SDS011;15138;51.012;4.692;2024-01-27T07:45:24;16.83;;;5.82;;
27746;SDS011;15138;51.012;4.692;2024-01-27T07:47:52;15.15;;;5.80;;
27746;SDS011;15138;51.012;4.692;2024-01-27T07:50:23;17.85;;;5.82;;
27746;SDS011;15138;51.012;4.692;2024-01-27T07:52:51;20.00;;;7.15;;
27746;SDS011;15138;51.012;4.692;2024-01-27T07:55:20;16.00;;;5.63;;
27746;SDS011;15138;51.012;4.692;2024-01-27T07:57:49;20.65;;;7.03;;
27746;SDS011;15138;51.012;4.692;2024-01-27T08:00:17;14.98;;;6.82;;
27746;SDS011;15138;51.012;4.692;2024-01-27T08:02:45;25.45;;;7.55;;
27746;SDS011;15138;51.012;4.692;2024-01-27T08:05:13;15.68;;;6.88;;
27746;SDS011;15138;51.012;4.692;2024-01-27T08:07:47;22.38;;;6.78;;
27746;SDS011;15138;51.012;4.692;2024-01-27T08:10:15;21.08;;;7.22;;
27746;SDS011;15138;51.012;4.692;2024-01-27T08:12:45;26.58;;;8.00;;
27746;SDS011;15138;51.012;4.692;2024-01-27T08:15:13;18.23;;;6.78;;
27746;SDS011;15138;51.012;4.692;2024-01-27T08:17:41;21.00;;;7.35;;
27746;SDS011;15138;51.012;4.692;2024-01-27T08:20:10;26.90;;;8.07;;
27746;SDS011;15138;51.012;4.692;2024-01-27T08:22:39;29.38;;;7.85;;
27746;SDS011;15138;51.012;4.692;2024-01-27T08:25:08;33.08;;;8.32;;
27746;SDS011;15138;51.012;4.692;2024-01-27T08:27:36;23.80;;;9.02;;
27746;SDS011;15138;51.012;4.692;2024-01-27T08:30:06;25.38;;;8.98;;
27746;SDS011;15138;51.012;4.692;2024-01-27T08:32:37;34.50;;;10.32;;
27746;SDS011;15138;51.012;4.692;2024-01-27T08:35:05;30.42;;;9.15;;
27746;SDS011;15138;51.012;4.692;2024-01-27T08:37:37;29.85;;;11.23;;
27746;SDS011;15138;51.012;4.692;2024-01-27T08:40:06;30.08;;;11.30;;
27746;SDS011;15138;51.012;4.692;2024-01-27T08:42:35;34.00;;;11.57;;
27746;SDS011;15138;51.012;4.692;2024-01-27T08:45:03;33.05;;;11.10;;
27746;SDS011;15138;51.012;4.692;2024-01-27T08:47:34;36.67;;;11.63;;
27746;SDS011;15138;51.012;4.692;2024-01-27T08:50:03;35.15;;;13.38;;
27746;SDS011;15138;51.012;4.692;2024-01-27T08:52:31;48.38;;;13.65;;
27746;SDS011;15138;51.012;4.692;2024-01-27T08:55:04;41.45;;;13.52;;
27746;SDS011;15138;51.012;4.692;2024-01-27T08:57:33;31.85;;;11.23;;
27746;SDS011;15138;51.012;4.692;2024-01-27T09:00:01;45.45;;;11.18;;
27746;SDS011;15138;51.012;4.692;2024-01-27T09:02:30;26.98;;;9.23;;
27746;SDS011;15138;51.012;4.692;2024-01-27T09:05:00;24.42;;;8.82;;
27746;SDS011;15138;51.012;4.692;2024-01-27T09:07:28;38.33;;;10.07;;
27746;SDS011;15138;51.012;4.692;2024-01-27T09:09:57;30.73;;;9.85;;
27746;SDS011;15138;51.012;4.692;2024-01-27T09:12:25;35.53;;;9.93;;
27746;SDS011;15138;51.012;4.692;2024-01-27T09:14:53;25.83;;;9.07;;
27746;SDS011;15138;51.012;4.692;2024-01-27T09:17:21;30.38;;;9.27;;
27746;SDS011;15138;51.012;4.692;2024-01-27T09:19:50;24.77;;;7.95;;
27746;SDS011;15138;51.012;4.692;2024-01-27T09:22:19;28.63;;;7.97;;
27746;SDS011;15138;51.012;4.692;2024-01-27T09:24:48;25.58;;;7.57;;
27746;SDS011;15138;51.012;4.692;2024-01-27T09:27:16;24.30;;;7.20;;
27746;SDS011;15138;51.012;4.692;2024-01-27T09:29:44;23.08;;;7.38;;
27746;SDS011;15138;51.012;4.692;2024-01-27T09:32:13;27.10;;;6.95;;
27746;SDS011;15138;51.012;4.692;2024-01-27T09:34:41;22.65;;;7.05;;
27746;SDS011;15138;51.012;4.692;2024-01-27T09:37:09;26.17;;;7.78;;
27746;SDS011;15138;51.012;4.692;2024-01-27T09:39:39;22.50;;;6.45;;
27746;SDS011;15138;51.012;4.692;2024-01-27T09:42:08;21.73;;;6.43;;
27746;SDS011;15138;51.012;4.692;2024-01-27T09:44:43;19.83;;;5.45;;
27746;SDS011;15138;51.012;4.692;2024-01-27T09:47:12;29.33;;;5.85;;
27746;SDS011;15138;51.012;4.692;2024-01-27T09:49:40;20.42;;;6.05;;
27746;SDS011;15138;51.012;4.692;2024-01-27T09:52:10;15.95;;;5.15;;
27746;SDS011;15138;51.012;4.692;2024-01-27T09:54:40;19.90;;;4.97;;
27746;SDS011;15138;51.012;4.692;2024-01-27T09:57:09;26.05;;;5.90;;
27746;SDS011;15138;51.012;4.692;2024-01-27T09:59:39;20.20;;;5.47;;
27746;SDS011;15138;51.012;4.692;2024-01-27T10:02:11;18.85;;;5.50;;
27746;SDS011;15138;51.012;4.692;2024-01-27T10:04:40;20.25;;;5.22;;
27746;SDS011;15138;51.012;4.692;2024-01-27T10:07:09;15.60;;;5.20;;
27746;SDS011;15138;51.012;4.692;2024-01-27T10:09:37;19.42;;;4.85;;
27746;SDS011;15138;51.012;4.692;2024-01-27T10:12:08;15.32;;;4.75;;
27746;SDS011;15138;51.012;4.692;2024-01-27T10:14:40;18.50;;;5.10;;
27746;SDS011;15138;51.012;4.692;2024-01-27T10:17:08;14.98;;;4.32;;
27746;SDS011;15138;51.012;4.692;2024-01-27T10:19:39;18.50;;;5.10;;
27746;SDS011;15138;51.012;4.692;2024-01-27T10:22:11;16.23;;;4.45;;
27746;SDS011;15138;51.012;4.692;2024-01-27T10:24:39;17.95;;;4.97;;
27746;SDS011;15138;51.012;4.692;2024-01-27T10:27:09;16.05;;;4.93;;
27746;SDS011;15138;51.012;4.692;2024-01-27T10:29:37;19.25;;;4.60;;
27746;SDS011;15138;51.012;4.692;2024-01-27T10:32:09;19.00;;;4.93;;
27746;SDS011;15138;51.012;4.692;2024-01-27T10:34:37;17.80;;;4.72;;
27746;SDS011;15138;51.012;4.692;2024-01-27T10:37:06;25.98;;;5.40;;
27746;SDS011;15138;51.012;4.692;2024-01-27T10:39:35;17.40;;;4.32;;
27746;SDS011;15138;51.012;4.692;2024-01-27T10:42:03;18.75;;;4.20;;
27746;SDS011;15138;51.012;4.692;2024-01-27T10:44:35;21.45;;;4.18;;
27746;SDS011;15138;51.012;4.692;2024-01-27T10:47:05;15.07;;;3.72;;
27746;SDS011;15138;51.012;4.692;2024-01-27T10:49:36;17.02;;;3.75;;
27746;SDS011;15138;51.012;4.692;2024-01-27T10:52:06;11.70;;;3.60;;
27746;SDS011;15138;51.012;4.692;2024-01-27T10:54:36;15.00;;;3.88;;
27746;SDS011;15138;51.012;4.692;2024-01-27T10:57:06;19.17;;;3.67;;
27746;SDS011;15138;51.012;4.692;2024-01-27T10:59:37;12.20;;;3.15;;
27746;SDS011;15138;51.012;4.692;2024-01-27T11:02:06;17.73;;;3.42;;
27746;SDS011;15138;51.012;4.692;2024-01-27T11:04:38;17.17;;;3.30;;
27746;SDS011;15138;51.012;4.692;2024-01-27T11:07:07;14.93;;;3.67;;
27746;SDS011;15138;51.012;4.692;2024-01-27T11:09:35;17.98;;;3.63;;
27746;SDS011;15138;51.012;4.692;2024-01-27T11:12:05;13.70;;;3.28;;
27746;SDS011;15138;51.012;4.692;2024-01-27T11:14:34;10.82;;;3.08;;
27746;SDS011;15138;51.012;4.692;2024-01-27T11:17:07;13.75;;;3.63;;
27746;SDS011;15138;51.012;4.692;2024-01-27T11:19:35;13.43;;;2.78;;
27746;SDS011;15138;51.012;4.692;2024-01-27T11:22:04;9.43;;;2.88;;
27746;SDS011;15138;51.012;4.692;2024-01-27T11:24:32;17.13;;;3.05;;
27746;SDS011;15138;51.012;4.692;2024-01-27T11:27:01;14.60;;;3.05;;
27746;SDS011;15138;51.012;4.692;2024-01-27T11:29:30;14.68;;;3.33;;
27746;SDS011;15138;51.012;4.692;2024-01-27T11:32:00;14.43;;;4.25;;
27746;SDS011;15138;51.012;4.692;2024-01-27T11:34:41;10.18;;;2.90;;
27746;SDS011;15138;51.012;4.692;2024-01-27T11:37:11;8.32;;;2.97;;
27746;SDS011;15138;51.012;4.692;2024-01-27T11:39:39;11.75;;;2.95;;
27746;SDS011;15138;51.012;4.692;2024-01-27T11:42:08;12.52;;;3.38;;
27746;SDS011;15138;51.012;4.692;2024-01-27T11:44:38;20.38;;;4.13;;
27746;SDS011;15138;51.012;4.692;2024-01-27T11:47:13;12.77;;;3.00;;
27746;SDS011;15138;51.012;4.692;2024-01-27T11:49:48;15.77;;;2.88;;
27746;SDS011;15138;51.012;4.692;2024-01-27T11:52:22;8.35;;;2.60;;
27746;SDS011;15138;51.012;4.692;2024-01-27T11:54:56;12.38;;;2.83;;
27746;SDS011;15138;51.012;4.692;2024-01-27T11:57:27;12.57;;;3.13;;
27746;SDS011;15138;51.012;4.692;2024-01-27T11:59:56;16.67;;;3.00;;
27746;SDS011;15138;51.012;4.692;2024-01-27T12:02:27;11.93;;;2.70;;
27746;SDS011;15138;51.012;4.692;2024-01-27T12:04:56;16.63;;;2.90;;
27746;SDS011;15138;51.012;4.692;2024-01-27T12:07:25;10.07;;;2.92;;
27746;SDS011;15138;51.012;4.692;2024-01-27T12:09:54;13.80;;;2.55;;
27746;SDS011;15138;51.012;4.692;2024-01-27T12:12:22;10.10;;;2.20;;
27746;SDS011;15138;51.012;4.692;2024-01-27T12:14:51;8.75;;;2.75;;
27746;SDS011;15138;51.012;4.692;2024-01-27T12:17:19;11.00;;;2.55;;
27746;SDS011;15138;51.012;4.692;2024-01-27T12:19:50;15.82;;;2.80;;
27746;SDS011;15138;51.012;4.692;2024-01-27T12:22:24;15.18;;;2.92;;
27746;SDS011;15138;51.012;4.692;2024-01-27T12:24:53;12.70;;;2.55;;
27746;SDS011;15138;51.012;4.692;2024-01-27T12:27:22;9.88;;;2.60;;
27746;SDS011;15138;51.012;4.692;2024-01-27T12:29:51;11.02;;;2.72;;
27746;SDS011;15138;51.012;4.692;2024-01-27T12:32:19;11.23;;;2.67;;
27746;SDS011;15138;51.012;4.692;2024-01-27T12:34:47;7.68;;;2.65;;
27746;SDS011;15138;51.012;4.692;2024-01-27T12:37:17;8.43;;;2.53;;
27746;SDS011;15138;51.012;4.692;2024-01-27T12:39:47;10.70;;;2.85;;
27746;SDS011;15138;51.012;4.692;2024-01-27T12:42:17;14.05;;;2.63;;
27746;SDS011;15138;51.012;4.692;2024-01-27T12:44:45;10.55;;;2.60;;
27746;SDS011;15138;51.012;4.692;2024-01-27T12:47:14;11.80;;;2.58;;
27746;SDS011;15138;51.012;4.692;2024-01-27T12:49:42;13.13;;;2.45;;
27746;SDS011;15138;51.012;4.692;2024-01-27T12:52:10;18.02;;;3.17;;
27746;SDS011;15138;51.012;4.692;2024-01-27T12:54:39;15.15;;;3.10;;
27746;SDS011;15138;51.012;4.692;2024-01-27T12:57:08;8.23;;;2.65;;
27746;SDS011;15138;51.012;4.692;2024-01-27T12:59:37;11.35;;;2.90;;
27746;SDS011;15138;51.012;4.692;2024-01-27T13:02:05;14.15;;;3.10;;
27746;SDS011;15138;51.012;4.692;2024-01-27T13:04:34;12.45;;;2.70;;
27746;SDS011;15138;51.012;4.692;2024-01-27T13:07:02;8.80;;;2.83;;
27746;SDS011;15138;51.012;4.692;2024-01-27T13:09:31;13.73;;;3.00;;
27746;SDS011;15138;51.012;4.692;2024-01-27T13:11:59;10.88;;;2.55;;
27746;SDS011;15138;51.012;4.692;2024-01-27T13:14:29;10.52;;;2.88;;
27746;SDS011;15138;51.012;4.692;2024-01-27T13:16:57;12.77;;;3.08;;
27746;SDS011;15138;51.012;4.692;2024-01-27T13:19:27;9.15;;;2.30;;
27746;SDS011;15138;51.012;4.692;2024-01-27T13:21:57;13.90;;;2.88;;
27746;SDS011;15138;51.012;4.692;2024-01-27T13:24:25;12.85;;;2.47;;
27746;SDS011;15138;51.012;4.692;2024-01-27T13:26:54;10.75;;;2.83;;
27746;SDS011;15138;51.012;4.692;2024-01-27T13:29:22;12.82;;;2.38;;
27746;SDS011;15138;51.012;4.692;2024-01-27T13:31:51;10.40;;;2.75;;
27746;SDS011;15138;51.012;4.692;2024-01-27T13:34:20;10.73;;;2.35;;
27746;SDS011;15138;51.012;4.692;2024-01-27T13:36:48;10.02;;;2.65;;
27746;SDS011;15138;51.012;4.692;2024-01-27T13:39:17;13.07;;;2.88;;
27746;SDS011;15138;51.012;4.692;2024-01-27T13:41:45;11.05;;;2.45;;
27746;SDS011;15138;51.012;4.692;2024-01-27T13:44:13;12.88;;;4.30;;
27746;SDS011;15138;51.012;4.692;2024-01-27T13:46:41;5.70;;;2.30;;
27746;SDS011;15138;51.012;4.692;2024-01-27T13:49:11;9.90;;;2.55;;
27746;SDS011;15138;51.012;4.692;2024-01-27T13:51:39;8.95;;;2.55;;
27746;SDS011;15138;51.012;4.692;2024-01-27T13:54:08;8.18;;;2.80;;
27746;SDS011;15138;51.012;4.692;2024-01-27T13:56:36;13.18;;;2.72;;
27746;SDS011;15138;51.012;4.692;2024-01-27T13:59:04;15.65;;;3.08;;
27746;SDS011;15138;51.012;4.692;2024-01-27T14:01:32;15.32;;;4.38;;
27746;SDS011;15138;51.012;4.692;2024-01-27T14:04:01;8.13;;;2.38;;
27746;SDS011;15138;51.012;4.692;2024-01-27T14:06:30;19.90;;;4.93;;
27746;SDS011;15138;51.012;4.692;2024-01-27T14:08:59;12.05;;;2.72;;
27746;SDS011;15138;51.012;4.692;2024-01-27T14:11:28;8.15;;;2.50;;
27746;SDS011;15138;51.012;4.692;2024-01-27T14:13:56;7.32;;;1.95;;
27746;SDS011;15138;51.012;4.692;2024-01-27T14:16:24;8.05;;;2.25;;
27746;SDS011;15138;51.012;4.692;2024-01-27T14:18:52;10.35;;;2.53;;
27746;SDS011;15138;51.012;4.692;2024-01-27T14:21:21;11.43;;;2.60;;
27746;SDS011;15138;51.012;4.692;2024-01-27T14:23:51;7.85;;;2.13;;
27746;SDS011;15138;51.012;4.692;2024-01-27T14:26:27;10.10;;;2.25;;
27746;SDS011;15138;51.012;4.692;2024-01-27T14:28:55;11.50;;;2.42;;
27746;SDS011;15138;51.012;4.692;2024-01-27T14:31:23;8.25;;;2.08;;
27746;SDS011;15138;51.012;4.692;2024-01-27T14:33:52;13.43;;;2.28;;
27746;SDS011;15138;51.012;4.692;2024-01-27T14:36:21;8.95;;;2.20;;
27746;SDS011;15138;51.012;4.692;2024-01-27T14:38:52;8.90;;;2.05;;
27746;SDS011;15138;51.012;4.692;2024-01-27T14:41:20;11.10;;;2.35;;
27746;SDS011;15138;51.012;4.692;2024-01-27T14:43:50;7.43;;;2.20;;
27746;SDS011;15138;51.012;4.692;2024-01-27T14:46:18;8.48;;;2.35;;
27746;SDS011;15138;51.012;4.692;2024-01-27T14:48:46;9.43;;;2.63;;